Time;durP1;ratioP1;P1;durP2;ratioP2;P2;SDS_P1;SDS_P2;PMS_P1;PMS_P2;Temp;Humidity;BMP_temperature;BMP_pressure;BME280_temperature;BME280_humidity;BME280_pressure;Samples;Min_cycle;Max_cycle;Signal;HPM_P1;HPM_P2
2021/09/22 00:00:23;;;;;;;2.88;2.30;;;;;;;6.06;84.83;98656.50;5093251;28;20087;-64
2021/09/22 00:02:49;;;;;;;3.53;2.08;;;;;;;6.02;85.01;98652.72;5111690;28;20062;-65
2021/09/22 00:05:15;;;;;;;4.47;3.17;;;;;;;5.99;85.40;98668.16;5113236;28;20039;-64
2021/09/22 00:07:49;;;;;;;3.35;2.80;;;;;;;5.97;85.20;98652.59;5115331;28;20108;-64
2021/09/22 00:10:17;;;;;;;3.97;2.63;;;;;;;6.02;85.43;98647.44;5115187;28;20183;-64
2021/09/22 00:12:43;;;;;;;11.23;4.32;;;;;;;6.01;84.73;98651.13;5115373;28;20088;-64
2021/09/22 00:15:11;;;;;;;5.60;3.70;;;;;;;6.03;84.87;98651.69;5114821;28;20082;-64
2021/09/22 00:17:37;;;;;;;5.45;4.00;;;;;;;6.10;84.94;98647.13;5113745;28;20538;-64
2021/09/22 00:20:03;;;;;;;7.65;4.38;;;;;;;6.08;85.12;98645.75;5113571;28;20134;-64
2021/09/22 00:22:29;;;;;;;6.25;4.80;;;;;;;6.05;85.06;98647.00;5096505;28;20081;-65
2021/09/22 00:24:55;;;;;;;11.02;6.63;;;;;;;6.03;85.12;98646.44;5115195;28;20066;-64
2021/09/22 00:27:21;;;;;;;11.27;6.80;;;;;;;5.98;86.23;98641.03;5115068;27;20048;-64
2021/09/22 00:29:47;;;;;;;11.13;7.75;;;;;;;5.97;85.53;98644.72;5096547;28;20054;-63
2021/09/22 00:32:12;;;;;;;12.52;7.55;;;;;;;6.01;85.36;98645.84;5096113;28;20052;-63
2021/09/22 00:34:38;;;;;;;13.10;8.40;;;;;;;6.07;85.86;98654.69;5114412;28;20180;-63
2021/09/22 00:37:06;;;;;;;8.85;6.63;;;;;;;6.09;85.06;98648.16;5113091;28;20126;-63
2021/09/22 00:39:35;;;;;;;10.43;7.22;;;;;;;6.11;84.88;98640.81;5114947;27;20039;-65
2021/09/22 00:42:03;;;;;;;6.45;4.28;;;;;;;6.09;84.57;98640.28;5096060;28;20047;-63
2021/09/22 00:44:29;;;;;;;7.45;5.38;;;;;;;6.03;84.42;98638.53;5096191;28;20512;-64
2021/09/22 00:46:55;;;;;;;6.25;4.32;;;;;;;6.09;84.95;98642.09;5114542;28;20079;-63
2021/09/22 00:49:21;;;;;;;5.03;3.45;;;;;;;6.04;85.46;98636.72;5114265;28;20154;-64
2021/09/22 00:51:51;;;;;;;4.45;3.10;;;;;;;6.04;85.88;98623.56;5113052;28;20092;-64
2021/09/22 00:54:17;;;;;;;4.88;3.30;;;;;;;6.13;85.80;98633.50;5112894;28;20043;-63
2021/09/22 00:56:44;;;;;;;3.85;2.55;;;;;;;6.13;84.03;98637.97;5114139;28;20065;-64
2021/09/22 00:59:10;;;;;;;3.63;2.50;;;;;;;6.11;84.12;98632.94;5095884;28;20126;-65
2021/09/22 01:01:35;;;;;;;3.25;2.45;;;;;;;6.10;83.84;98626.06;5114044;28;20527;-65
2021/09/22 01:04:03;;;;;;;3.53;2.72;;;;;;;6.14;84.07;98629.06;5112911;28;20035;-65
2021/09/22 01:06:40;;;;;;;4.07;3.00;;;;;;;6.17;83.96;98631.22;5109300;27;20765;-65
2021/09/22 01:09:06;;;;;;;4.78;3.42;;;;;;;6.24;84.32;98634.56;5107906;28;20040;-64
2021/09/22 01:11:34;;;;;;;3.45;2.78;;;;;;;6.23;83.32;98625.06;5109661;28;20048;-64
2021/09/22 01:14:01;;;;;;;4.00;3.08;;;;;;;6.25;83.37;98625.63;5107831;28;20445;-64
2021/09/22 01:16:27;;;;;;;3.92;3.03;;;;;;;6.24;83.85;98620.63;5107865;28;20044;-64
2021/09/22 01:18:53;;;;;;;3.92;2.72;;;;;;;6.20;84.38;98612.34;5109016;28;20070;-65
2021/09/22 01:21:20;;;;;;;3.97;2.80;;;;;;;6.28;83.94;98625.19;5109561;28;20036;-64
2021/09/22 01:23:49;;;;;;;3.10;2.47;;;;;;;6.32;82.84;98612.34;5107798;28;20447;-66
2021/09/22 01:26:15;;;;;;;4.68;2.83;;;;;;;6.33;83.63;98611.34;5090550;28;20070;-64
2021/09/22 01:28:45;;;;;;;4.18;3.08;;;;;;;6.31;83.55;98618.66;5091156;28;20112;-66
2021/09/22 01:31:13;;;;;;;4.43;3.10;;;;;;;6.34;83.13;98619.00;5107858;28;20040;-64
2021/09/22 01:33:39;;;;;;;5.45;3.63;;;;;;;6.31;82.89;98621.28;5108683;28;20501;-64
2021/09/22 01:36:14;;;;;;;4.22;2.95;;;;;;;6.27;83.42;98614.91;5107790;28;20514;-64
2021/09/22 01:38:44;;;;;;;5.10;3.17;;;;;;;6.30;83.40;98612.59;5107733;28;20047;-65
2021/09/22 01:41:15;;;;;;;3.45;2.60;;;;;;;6.30;82.58;98619.69;5107632;28;20040;-66
2021/09/22 01:43:56;;;;;;;4.63;3.30;;;;;;;6.21;84.05;98610.53;5092462;28;20040;-64
2021/09/22 01:46:42;;;;;;;5.57;3.28;;;;;;;6.25;84.80;98612.47;5106125;28;20509;-64
2021/09/22 01:49:08;;;;;;;4.72;3.30;;;;;;;6.30;85.29;98607.34;5089094;28;20063;-65
2021/09/22 01:51:34;;;;;;;5.40;2.95;;;;;;;6.23;84.21;98604.00;5089313;28;20067;-64
2021/09/22 01:54:11;;;;;;;3.45;2.80;;;;;;;6.16;84.19;98613.06;5106046;28;20040;-64
2021/09/22 01:56:42;;;;;;;4.47;3.40;;;;;;;6.16;84.69;98611.22;5105889;28;20056;-63
2021/09/22 01:59:08;;;;;;;4.03;2.90;;;;;;;6.14;83.90;98608.00;5105933;28;20067;-64
2021/09/22 02:02:12;;;;;;;4.20;3.10;;;;;;;6.06;83.91;98614.41;5085406;28;20464;-64
2021/09/22 02:05:00;;;;;;;4.30;2.95;;;;;;;6.06;83.61;98611.78;5064848;28;20060;-64
2021/09/22 02:07:27;;;;;;;4.07;3.22;;;;;;;6.06;83.64;98611.78;5064987;28;20056;-64
2021/09/22 02:09:57;;;;;;;3.13;2.53;;;;;;;6.02;83.52;98604.56;5064951;28;20159;-64
2021/09/22 02:12:23;;;;;;;4.65;3.35;;;;;;;6.16;83.50;98616.47;5031804;28;20056;-64
2021/09/22 02:14:49;;;;;;;4.53;3.05;;;;;;;6.11;82.95;98616.34;5064849;28;20049;-63
2021/09/22 02:17:15;;;;;;;4.63;2.72;;;;;;;5.98;82.96;98614.75;5022897;28;20068;-65
2021/09/22 02:19:43;;;;;;;4.75;2.97;;;;;;;5.89;84.14;98608.97;5035282;28;20049;-65
2021/09/22 02:22:30;;;;;;;3.05;2.35;;;;;;;5.91;83.10;98617.44;5048132;28;20053;-65
2021/09/22 02:25:16;;;;;;;2.97;2.38;;;;;;;5.95;83.22;98615.19;5051452;28;20064;-64
2021/09/22 02:27:41;;;;;;;3.55;2.60;;;;;;;5.94;82.99;98610.94;5051504;28;20049;-64
2021/09/22 02:30:12;;;;;;;4.55;3.08;;;;;;;5.87;83.45;98603.13;5051451;28;20068;-64
2021/09/22 02:32:40;;;;;;;3.57;2.57;;;;;;;5.90;83.38;98612.41;5054815;28;20194;-64
2021/09/22 02:35:08;;;;;;;3.30;2.58;;;;;;;5.88;82.80;98609.19;5057418;28;20748;-63
2021/09/22 02:37:48;;;;;;;4.40;2.92;;;;;;;5.85;83.22;98617.53;5077923;28;20070;-64
2021/09/22 02:40:37;;;;;;;3.40;2.17;;;;;;;5.85;83.34;98609.63;5092849;28;20044;-64
2021/09/22 02:43:02;;;;;;;4.07;2.75;;;;;;;5.81;83.56;98605.88;5092617;28;20047;-64
2021/09/22 02:45:30;;;;;;;4.50;2.60;;;;;;;5.83;83.38;98607.25;5092644;28;20052;-64
2021/09/22 02:47:55;;;;;;;4.63;2.90;;;;;;;5.70;83.69;98604.78;5075698;28;20085;-64
2021/09/22 02:50:21;;;;;;;3.45;2.63;;;;;;;5.79;83.69;98606.06;5094113;28;20050;-64
2021/09/22 02:52:47;;;;;;;3.20;2.30;;;;;;;5.81;83.21;98600.59;5075710;28;20256;-64
2021/09/22 02:55:14;;;;;;;4.75;2.15;;;;;;;5.85;82.90;98597.31;5092462;28;20048;-64
2021/09/22 02:57:40;;;;;;;4.35;2.50;;;;;;;5.86;83.54;98603.38;5075414;28;20087;-64
2021/09/22 03:00:09;;;;;;;4.85;2.97;;;;;;;5.84;84.74;98600.16;5076108;28;20225;-65
2021/09/22 03:02:36;;;;;;;3.28;2.47;;;;;;;5.87;83.55;98599.69;5075458;28;20072;-65
2021/09/22 03:05:03;;;;;;;3.50;2.67;;;;;;;5.86;83.60;98592.84;5075203;28;20063;-64
2021/09/22 03:07:29;;;;;;;3.00;2.50;;;;;;;5.86;83.47;98593.63;5092153;28;20073;-63
2021/09/22 03:09:54;;;;;;;3.13;2.20;;;;;;;5.82;83.72;98594.31;5092119;28;20044;-64
2021/09/22 03:12:20;;;;;;;4.38;2.88;;;;;;;5.70;84.93;98595.06;5092001;28;20047;-64
2021/09/22 03:14:46;;;;;;;3.80;2.50;;;;;;;5.65;85.56;98596.81;5075003;28;20074;-64
2021/09/22 03:17:12;;;;;;;4.15;2.50;;;;;;;5.63;85.63;98594.38;5091969;28;20036;-64
2021/09/22 03:19:38;;;;;;;3.72;2.83;;;;;;;5.59;85.20;98600.31;5091794;28;20046;-64
2021/09/22 03:22:04;;;;;;;3.05;2.55;;;;;;;5.46;85.08;98601.28;5075062;28;20056;-65
2021/09/22 03:25:04;;;;;;;4.35;2.83;;;;;;;5.41;86.00;98590.63;5069600;28;20060;-65
2021/09/22 03:27:31;;;;;;;5.15;2.90;;;;;;;5.45;86.18;98605.75;5074853;28;20170;-65
2021/09/22 03:29:57;;;;;;;3.58;2.25;;;;;;;5.46;84.83;98585.53;5070893;28;20123;-63
2021/09/22 03:32:22;;;;;;;3.60;2.22;;;;;;;5.52;84.40;98595.16;5080026;28;20501;-65
2021/09/22 03:34:48;;;;;;;3.45;2.35;;;;;;;5.57;84.38;98582.13;5082961;28;20512;-62
2021/09/22 03:37:14;;;;;;;3.92;2.50;;;;;;;5.60;84.29;98591.41;5066247;28;20032;-63
2021/09/22 03:39:40;;;;;;;3.85;2.25;;;;;;;5.60;84.34;98592.19;5088612;28;20127;-63
2021/09/22 03:42:06;;;;;;;4.13;2.60;;;;;;;5.67;84.20;98589.47;5091473;28;20127;-64
2021/09/22 03:44:32;;;;;;;3.92;2.35;;;;;;;5.70;83.64;98597.69;5074453;28;20492;-65
2021/09/22 03:46:58;;;;;;;3.72;2.88;;;;;;;5.75;83.47;98593.63;5092783;28;20054;-64
2021/09/22 03:49:25;;;;;;;3.42;2.53;;;;;;;5.77;82.63;98589.75;5074435;28;20039;-65
2021/09/22 03:51:52;;;;;;;3.72;2.70;;;;;;;5.68;83.75;98591.09;5074525;28;20040;-65
2021/09/22 03:54:18;;;;;;;4.47;2.80;;;;;;;5.79;83.56;98592.13;5074127;28;20526;-64
2021/09/22 03:56:44;;;;;;;3.65;2.63;;;;;;;5.86;83.07;98592.84;5074322;28;20071;-65
2021/09/22 03:59:10;;;;;;;4.85;2.85;;;;;;;5.87;83.76;98583.91;5074287;28;20097;-65
2021/09/22 04:01:37;;;;;;;4.05;2.63;;;;;;;5.93;82.86;98585.66;5057936;28;20512;-64
2021/09/22 04:04:03;;;;;;;4.05;3.03;;;;;;;5.94;82.91;98589.88;5074220;28;20082;-64
2021/09/22 04:06:28;;;;;;;4.40;3.00;;;;;;;5.95;83.04;98586.25;5092004;28;20425;-65
2021/09/22 04:08:55;;;;;;;3.88;2.70;;;;;;;6.00;82.33;98591.66;5090895;28;20540;-65
2021/09/22 04:11:22;;;;;;;4.30;3.03;;;;;;;5.96;82.48;98579.94;5091161;28;20048;-64
2021/09/22 04:13:49;;;;;;;5.47;3.25;;;;;;;5.87;82.63;98571.56;5074170;28;20061;-65
2021/09/22 04:16:15;;;;;;;4.93;3.13;;;;;;;5.98;82.88;98587.63;5074240;28;20044;-65
2021/09/22 04:18:41;;;;;;;5.63;3.45;;;;;;;5.96;83.15;98589.69;5073776;28;20513;-65
2021/09/22 04:21:07;;;;;;;3.92;3.00;;;;;;;5.99;82.61;98587.38;5091043;28;20040;-66
2021/09/22 04:23:33;;;;;;;4.85;3.20;;;;;;;6.02;82.74;98583.50;5092197;28;20040;-63
2021/09/22 04:25:59;;;;;;;5.82;3.75;;;;;;;6.00;82.80;98588.19;5090479;28;20424;-65
2021/09/22 04:28:26;;;;;;;5.22;3.47;;;;;;;5.98;82.29;98591.06;5073456;28;20463;-65
2021/09/22 04:31:10;;;;;;;6.00;4.22;;;;;;;5.97;83.10;98586.00;5091001;28;20420;-65
2021/09/22 04:33:53;;;;;;;4.70;3.20;;;;;;;6.04;82.12;98590.16;5091623;28;20044;-65
2021/09/22 04:36:40;;;;;;;4.75;3.50;;;;;;;6.00;82.62;98585.56;5091810;28;20052;-66
2021/09/22 04:39:26;;;;;;;5.97;3.90;;;;;;;6.07;82.79;98589.69;5090385;28;20048;-64
2021/09/22 04:42:10;;;;;;;9.00;4.43;;;;;;;6.05;82.55;98585.69;5091522;28;20473;-65
2021/09/22 04:44:54;;;;;;;5.57;3.75;;;;;;;6.10;82.72;98583.97;5091434;28;20056;-65
2021/09/22 04:47:39;;;;;;;4.80;2.92;;;;;;;6.08;82.37;98586.03;5091434;28;20051;-64
2021/09/22 04:50:23;;;;;;;7.70;3.85;;;;;;;6.19;82.98;98588.91;5090165;28;20044;-65
2021/09/22 04:53:08;;;;;;;6.93;3.75;;;;;;;6.12;82.41;98576.66;5090329;28;20121;-66
2021/09/22 04:55:53;;;;;;;5.47;3.78;;;;;;;6.07;83.72;98588.91;5091739;28;20627;-64
2021/09/22 04:58:37;;;;;;;4.82;3.67;;;;;;;6.13;83.52;98580.09;5091320;28;20043;-65
2021/09/22 05:01:21;;;;;;;5.80;3.38;;;;;;;6.15;83.21;98593.84;5091912;28;20052;-65
2021/09/22 05:04:06;;;;;;;5.03;3.30;;;;;;;6.16;83.21;98586.72;5090525;28;20409;-64
2021/09/22 05:06:51;;;;;;;5.22;3.88;;;;;;;6.20;83.48;98588.66;5091458;28;20432;-66
2021/09/22 05:09:35;;;;;;;5.65;3.78;;;;;;;6.19;83.32;98578.38;5091313;28;20052;-64
2021/09/22 05:12:20;;;;;;;6.10;3.72;;;;;;;6.28;82.95;98585.69;5091097;28;20138;-61
2021/09/22 05:15:05;;;;;;;5.03;3.65;;;;;;;6.34;82.39;98579.53;5091519;28;20504;-67
2021/09/22 05:17:51;;;;;;;5.60;3.22;;;;;;;6.37;82.42;98581.69;5091202;28;20036;-65
2021/09/22 05:20:36;;;;;;;6.53;3.90;;;;;;;6.30;82.96;98578.38;5075941;28;20132;-61
2021/09/22 05:23:21;;;;;;;5.03;3.58;;;;;;;6.29;83.24;98584.66;5090876;28;20040;-62
2021/09/22 05:26:05;;;;;;;4.80;2.80;;;;;;;6.32;82.66;98586.03;5090917;28;20566;-61
2021/09/22 05:28:49;;;;;;;5.93;2.92;;;;;;;6.26;82.96;98579.84;5091100;28;20048;-61
2021/09/22 05:31:34;;;;;;;4.13;3.30;;;;;;;6.21;83.61;98584.22;5091552;28;20052;-61
2021/09/22 05:34:18;;;;;;;4.50;2.80;;;;;;;6.23;83.50;98582.16;5090936;28;20506;-61
2021/09/22 05:37:07;;;;;;;4.50;2.88;;;;;;;6.25;83.84;98575.63;5071165;28;20515;-60
2021/09/22 05:39:51;;;;;;;5.38;3.40;;;;;;;6.28;83.92;98580.44;5091510;28;20044;-62
2021/09/22 05:42:36;;;;;;;6.88;3.30;;;;;;;6.29;83.77;98576.75;5090817;28;20044;-61
2021/09/22 05:45:34;;;;;;;3.63;3.00;;;;;;;6.31;83.12;98569.44;5067331;28;20052;-62
2021/09/22 05:48:18;;;;;;;5.72;3.17;;;;;;;6.36;84.02;98585.38;5090979;28;20036;-62
2021/09/22 05:51:04;;;;;;;4.32;2.58;;;;;;;6.35;83.04;98583.78;5091519;28;20409;-62
2021/09/22 05:53:49;;;;;;;3.55;2.97;;;;;;;6.39;82.70;98581.47;5094871;28;20036;-61
2021/09/22 05:56:33;;;;;;;5.53;3.17;;;;;;;6.43;83.59;98587.06;5095366;28;20040;-62
2021/09/22 05:59:17;;;;;;;3.97;3.03;;;;;;;6.37;83.17;98592.22;5079021;28;20036;-62
2021/09/22 06:02:02;;;;;;;4.20;3.03;;;;;;;6.32;83.36;98591.31;5094607;28;20040;-63
2021/09/22 06:04:54;;;;;;;3.40;2.75;;;;;;;6.36;83.90;98580.09;5091171;28;20056;-65
2021/09/22 06:07:25;;;;;;;4.60;2.60;;;;;;;6.41;84.05;98586.50;5094564;28;20044;-67
2021/09/22 06:10:10;;;;;;;4.47;3.35;;;;;;;6.38;83.63;98574.59;5094794;28;20075;-65
2021/09/22 06:12:56;;;;;;;3.05;2.65;;;;;;;6.52;83.62;98591.75;5092958;28;20550;-66
2021/09/22 06:15:24;;;;;;;3.75;3.13;;;;;;;6.59;83.78;98592.44;5094672;28;20044;-66
2021/09/22 06:17:50;;;;;;;4.55;3.00;;;;;;;6.62;83.18;98595.63;5094348;28;20134;-66
2021/09/22 06:20:16;;;;;;;5.35;3.40;;;;;;;6.63;83.22;98592.00;5093321;28;20126;-66
2021/09/22 06:22:42;;;;;;;4.05;2.97;;;;;;;6.60;84.06;98591.41;5094225;28;20135;-66
2021/09/22 06:25:08;;;;;;;4.22;2.40;;;;;;;6.55;83.73;98590.50;5093992;28;20523;-66
2021/09/22 06:27:34;;;;;;;3.45;2.53;;;;;;;6.54;82.95;98596.81;5092714;28;20042;-65
2021/09/22 06:30:00;;;;;;;3.53;2.75;;;;;;;6.54;83.34;98600.22;5094245;28;20040;-67
2021/09/22 06:32:26;;;;;;;2.92;2.30;;;;;;;6.52;82.83;98599.66;5092531;28;20054;-65
2021/09/22 06:35:11;;;;;;;4.28;2.35;;;;;;;6.49;83.62;98602.75;5094042;28;20572;-65
2021/09/22 06:37:59;;;;;;;4.47;3.13;;;;;;;6.59;83.66;98610.88;5092325;28;20043;-66
2021/09/22 06:40:31;;;;;;;4.20;3.05;;;;;;;6.65;84.18;98600.44;5075509;28;20040;-66
2021/09/22 06:43:02;;;;;;;3.05;2.47;;;;;;;6.70;84.35;98606.63;5091915;28;20047;-64
2021/09/22 06:45:28;;;;;;;4.20;3.13;;;;;;;6.69;83.49;98599.75;5088338;28;20516;-66
2021/09/22 06:47:53;;;;;;;4.32;3.20;;;;;;;6.73;84.37;98613.25;5070525;28;20040;-64
2021/09/22 06:50:19;;;;;;;4.10;2.70;;;;;;;6.81;83.48;98605.81;5090376;28;20184;-66
2021/09/22 06:52:45;;;;;;;4.53;2.80;;;;;;;6.82;82.95;98617.13;5091073;28;20130;-67
2021/09/22 06:55:11;;;;;;;3.60;2.85;;;;;;;6.83;82.64;98610.84;5087278;28;20138;-65
2021/09/22 06:57:38;;;;;;;4.38;2.88;;;;;;;6.76;82.19;98605.69;5091584;28;20039;-64
2021/09/22 07:00:05;;;;;;;3.30;2.70;;;;;;;6.81;82.86;98610.28;5089688;28;20084;-64
2021/09/22 07:02:31;;;;;;;3.38;2.55;;;;;;;6.86;83.47;98609.59;5089807;28;20039;-64
2021/09/22 07:04:57;;;;;;;2.20;1.92;;;;;;;6.83;82.21;98611.66;5089986;28;20051;-64
2021/09/22 07:07:22;;;;;;;3.15;2.33;;;;;;;6.82;82.48;98623.22;5089969;28;20122;-65
2021/09/22 07:09:48;;;;;;;2.83;2.28;;;;;;;6.86;82.51;98614.88;5089181;28;20055;-65
2021/09/22 07:12:14;;;;;;;2.72;2.40;;;;;;;6.94;82.47;98625.03;5090253;28;20525;-64
2021/09/22 07:14:39;;;;;;;3.38;2.42;;;;;;;7.02;82.17;98614.91;5090844;28;20044;-63
2021/09/22 07:17:05;;;;;;;4.20;2.58;;;;;;;7.05;82.31;98621.56;5089216;28;20497;-62
2021/09/22 07:19:31;;;;;;;4.30;2.40;;;;;;;7.06;82.08;98617.91;5087963;28;20507;-63
2021/09/22 07:22:00;;;;;;;3.58;2.50;;;;;;;7.11;82.24;98614.56;5089548;28;20493;-64
2021/09/22 07:24:27;;;;;;;3.38;2.47;;;;;;;7.05;82.13;98619.72;5088969;28;20040;-65
2021/09/22 07:26:53;;;;;;;3.58;2.55;;;;;;;6.97;82.30;98614.00;5089618;28;20067;-64
2021/09/22 07:29:18;;;;;;;3.47;2.55;;;;;;;7.02;82.74;98622.03;5088990;28;20151;-64
2021/09/22 07:31:44;;;;;;;3.83;2.83;;;;;;;7.01;82.02;98618.59;5089286;28;20435;-64
2021/09/22 07:34:10;;;;;;;3.92;2.40;;;;;;;7.03;82.61;98621.03;5088570;28;20127;-64
2021/09/22 07:36:36;;;;;;;3.28;2.15;;;;;;;7.13;81.47;98615.13;5088668;28;20071;-65
2021/09/22 07:39:03;;;;;;;2.85;2.10;;;;;;;7.16;81.96;98622.56;5088659;28;20044;-64
2021/09/22 07:41:29;;;;;;;3.97;2.80;;;;;;;7.18;82.00;98620.53;5089601;28;20090;-64
2021/09/22 07:43:54;;;;;;;6.22;2.72;;;;;;;7.23;81.90;98617.97;5087712;28;20056;-64
2021/09/22 07:46:21;;;;;;;4.25;2.60;;;;;;;7.18;81.72;98616.03;5088620;28;20082;-64
2021/09/22 07:48:46;;;;;;;4.00;2.60;;;;;;;7.24;80.95;98625.66;5087580;28;20051;-64
2021/09/22 07:51:12;;;;;;;3.63;2.20;;;;;;;7.22;81.66;98622.44;5089367;28;20435;-63
2021/09/22 07:53:38;;;;;;;3.50;2.38;;;;;;;7.30;81.26;98631.81;5086531;28;20036;-64
2021/09/22 07:56:04;;;;;;;3.40;2.50;;;;;;;7.26;81.43;98620.94;5088333;28;20161;-63
2021/09/22 07:58:30;;;;;;;3.50;2.53;;;;;;;7.22;81.08;98630.34;5083513;28;20083;-66
2021/09/22 08:00:56;;;;;;;3.10;2.60;;;;;;;7.29;81.93;98614.38;5086680;28;20130;-65
2021/09/22 08:03:28;;;;;;;5.05;3.17;;;;;;;7.38;80.92;98633.28;5087280;28;20520;-65
2021/09/22 08:05:54;;;;;;;5.57;2.78;;;;;;;7.43;80.60;98628.91;5090058;28;20158;-66
2021/09/22 08:08:20;;;;;;;4.70;2.55;;;;;;;7.57;80.51;98632.06;5089891;28;20180;-67
2021/09/22 08:10:46;;;;;;;3.05;2.38;;;;;;;7.52;79.76;98626.69;5089986;28;20227;-66
2021/09/22 08:13:12;;;;;;;3.25;2.63;;;;;;;7.50;79.87;98632.22;5089405;28;20047;-66
2021/09/22 08:15:39;;;;;;;3.42;2.53;;;;;;;7.45;80.57;98634.75;5089598;28;20043;-65
2021/09/22 08:18:05;;;;;;;2.85;2.53;;;;;;;7.54;79.66;98634.38;5089385;28;20105;-65
2021/09/22 08:20:31;;;;;;;3.40;2.33;;;;;;;7.46;79.60;98623.16;5088617;28;20065;-65
2021/09/22 08:22:57;;;;;;;3.25;2.65;;;;;;;7.56;80.01;98637.56;5088377;28;20040;-65
2021/09/22 08:25:23;;;;;;;2.60;2.40;;;;;;;7.61;80.32;98635.81;5089245;28;20694;-66
2021/09/22 08:27:49;;;;;;;4.13;2.90;;;;;;;7.62;80.26;98628.72;5088670;28;20036;-65
2021/09/22 08:30:15;;;;;;;3.20;2.47;;;;;;;7.69;79.84;98630.16;5088103;28;20085;-67
2021/09/22 08:32:42;;;;;;;3.40;2.63;;;;;;;7.71;80.19;98636.00;5089841;28;20040;-66
2021/09/22 08:35:09;;;;;;;4.97;2.92;;;;;;;7.70;80.26;98629.13;5086326;28;20139;-65
2021/09/22 08:37:35;;;;;;;4.40;2.88;;;;;;;7.86;81.06;98629.41;5089451;28;20416;-65
2021/09/22 08:40:01;;;;;;;4.03;2.55;;;;;;;7.85;78.78;98633.06;5089348;28;20040;-65
2021/09/22 08:42:28;;;;;;;2.75;2.20;;;;;;;7.81;78.52;98637.22;5088693;28;20048;-64
2021/09/22 08:44:53;;;;;;;2.60;2.40;;;;;;;7.80;78.78;98640.91;5088238;28;20105;-63
2021/09/22 08:47:20;;;;;;;3.65;2.55;;;;;;;7.76;78.52;98634.50;5089367;28;20040;-64
2021/09/22 08:49:56;;;;;;;3.33;2.85;;;;;;;7.81;79.82;98640.66;5085758;28;20082;-65
2021/09/22 08:52:22;;;;;;;3.55;2.90;;;;;;;7.84;79.72;98642.03;5087298;28;20466;-63
2021/09/22 08:54:48;;;;;;;4.05;2.78;;;;;;;7.85;78.60;98652.34;5087919;28;20135;-63
2021/09/22 08:57:14;;;;;;;3.42;2.60;;;;;;;7.82;78.48;98641.47;5089080;28;20354;-65
2021/09/22 08:59:39;;;;;;;4.15;2.88;;;;;;;7.78;79.32;98651.69;5088530;28;20048;-65
2021/09/22 09:02:08;;;;;;;3.88;2.75;;;;;;;7.84;79.50;98645.47;5088152;28;20040;-65
2021/09/22 09:04:36;;;;;;;3.13;2.50;;;;;;;7.86;79.14;98647.88;5088380;28;20060;-64
2021/09/22 09:07:02;;;;;;;3.58;2.63;;;;;;;7.79;79.01;98640.09;5089058;28;20090;-64
2021/09/22 09:09:35;;;;;;;3.92;2.72;;;;;;;7.82;78.64;98654.66;5089432;28;20498;-65
2021/09/22 09:12:14;;;;;;;2.65;2.30;;;;;;;7.73;79.03;98643.69;5088012;28;20044;-65
2021/09/22 09:14:39;;;;;;;5.18;2.63;;;;;;;7.94;80.20;98647.47;5086461;28;20052;-65
2021/09/22 09:17:11;;;;;;;3.67;2.67;;;;;;;8.00;79.37;98646.53;5090067;28;20043;-64
2021/09/22 09:19:44;;;;;;;3.45;2.33;;;;;;;8.02;78.58;98639.16;5089586;28;20032;-66
2021/09/22 09:22:10;;;;;;;4.72;2.70;;;;;;;8.05;78.54;98643.16;5088237;28;20507;-67
2021/09/22 09:24:41;;;;;;;3.50;3.03;;;;;;;8.04;78.97;98644.22;5086840;28;20058;-70
2021/09/22 09:27:23;;;;;;;5.30;2.63;;;;;;;8.08;79.24;98645.34;5087173;28;20143;-66
2021/09/22 09:29:51;;;;;;;3.00;2.47;;;;;;;8.06;78.00;98645.59;5090116;28;20048;-63
2021/09/22 09:32:23;;;;;;;3.78;2.50;;;;;;;8.03;78.53;98650.53;5091430;28;20044;-66
2021/09/22 09:35:04;;;;;;;4.07;2.58;;;;;;;8.03;79.42;98645.25;5092663;28;20127;-65
2021/09/22 09:37:30;;;;;;;2.72;2.40;;;;;;;8.04;79.26;98647.66;5091373;28;20122;-68
2021/09/22 09:39:57;;;;;;;2.97;2.67;;;;;;;8.13;78.95;98643.59;5090661;28;20044;-63
2021/09/22 09:42:28;;;;;;;3.13;2.83;;;;;;;8.14;78.74;98654.94;5089949;28;20036;-65
2021/09/22 09:44:58;;;;;;;3.90;3.00;;;;;;;8.20;79.89;98648.69;5090487;28;20050;-65
2021/09/22 09:47:24;;;;;;;3.40;2.63;;;;;;;8.40;79.41;98645.59;5088491;28;20080;-66
2021/09/22 09:49:49;;;;;;;4.40;2.97;;;;;;;8.45;78.43;98650.19;5089739;28;20092;-65
2021/09/22 09:52:20;;;;;;;3.90;2.90;;;;;;;8.46;78.47;98655.22;5089663;28;20195;-65
2021/09/22 09:54:58;;;;;;;3.50;2.75;;;;;;;8.26;77.66;98655.66;5089750;28;20055;-65
2021/09/22 09:57:26;;;;;;;3.42;3.13;;;;;;;8.28;78.32;98658.88;5071554;28;20588;-65
2021/09/22 09:59:52;;;;;;;3.40;2.88;;;;;;;8.26;78.71;98658.28;5089285;28;20047;-64
2021/09/22 10:02:30;;;;;;;3.70;2.58;;;;;;;8.13;79.65;98653.34;5091324;28;20065;-65
2021/09/22 10:04:57;;;;;;;4.25;3.15;;;;;;;8.21;78.77;98658.22;5090593;28;20477;-64
2021/09/22 10:07:23;;;;;;;3.25;2.90;;;;;;;8.26;79.27;98662.78;5089790;28;20044;-64
2021/09/22 10:09:50;;;;;;;4.00;2.67;;;;;;;8.31;78.70;98671.59;5089212;28;20066;-65
2021/09/22 10:12:18;;;;;;;2.58;2.35;;;;;;;8.33;77.82;98664.22;5089432;28;20077;-64
2021/09/22 10:14:46;;;;;;;3.00;2.65;;;;;;;8.33;78.82;98664.22;5088778;28;20051;-63
2021/09/22 10:17:14;;;;;;;3.53;2.78;;;;;;;8.37;78.21;98665.34;5088427;28;20448;-62
2021/09/22 10:19:45;;;;;;;3.40;2.70;;;;;;;8.37;78.01;98667.19;5089490;28;20040;-63
2021/09/22 10:22:11;;;;;;;5.63;3.80;;;;;;;8.42;78.46;98664.66;5091398;28;20039;-64
2021/09/22 10:24:52;;;;;;;2.85;2.53;;;;;;;8.44;78.01;98669.69;5145167;27;20122;-64
2021/09/22 10:27:30;;;;;;;2.50;2.30;;;;;;;8.43;77.70;98671.53;5104906;27;20897;-65
2021/09/22 10:30:08;;;;;;;3.05;2.70;;;;;;;8.44;77.04;98669.69;5065607;28;20138;-65
2021/09/22 10:32:47;;;;;;;3.22;2.72;;;;;;;8.41;77.44;98673.59;5064497;28;20390;-66
2021/09/22 10:35:24;;;;;;;3.45;2.80;;;;;;;8.49;77.02;98673.22;5104862;27;20758;-64
2021/09/22 10:38:19;;;;;;;3.45;2.70;;;;;;;8.50;78.01;98672.19;5063531;28;20138;-65
2021/09/22 10:41:01;;;;;;;2.85;2.50;;;;;;;8.48;76.59;98670.81;5145605;27;20751;-67
2021/09/22 10:43:40;;;;;;;3.35;2.90;;;;;;;8.57;76.75;98672.03;5103987;27;20391;-65
2021/09/22 10:46:20;;;;;;;4.18;2.60;;;;;;;8.56;77.04;98675.69;5063933;28;20723;-65
2021/09/22 10:48:51;;;;;;;6.90;2.83;;;;;;;8.60;77.29;98671.53;5064453;28;20045;-64
2021/09/22 10:51:44;;;;;;;2.83;2.53;;;;;;;8.58;76.61;98669.13;5104003;27;20909;-64
2021/09/22 10:54:23;;;;;;;3.03;2.53;;;;;;;8.62;76.25;98670.25;5104285;27;20927;-65
2021/09/22 10:57:02;;;;;;;3.58;2.88;;;;;;;8.60;76.18;98666.25;5103354;27;20392;-64
2021/09/22 10:59:40;;;;;;;5.55;3.10;;;;;;;8.60;76.32;98672.31;5104145;27;20384;-64
2021/09/22 11:02:17;;;;;;;3.17;2.83;;;;;;;8.48;76.40;98674.25;5104663;27;20399;-65
2021/09/22 11:04:59;;;;;;;4.50;2.80;;;;;;;8.54;76.79;98672.50;5105363;27;20129;-64
2021/09/22 11:07:55;;;;;;;3.22;2.80;;;;;;;8.58;77.42;98682.31;5105581;27;20403;-64
2021/09/22 11:10:45;;;;;;;5.55;2.80;;;;;;;8.56;77.65;98679.16;5107450;27;20384;-64
2021/09/22 11:13:22;;;;;;;4.25;2.72;;;;;;;8.57;77.37;98677.31;5107066;27;20407;-65
2021/09/22 11:16:13;;;;;;;3.40;2.80;;;;;;;8.56;77.63;98683.59;5107766;27;20137;-64
2021/09/22 11:18:51;;;;;;;3.15;2.50;;;;;;;8.51;76.52;98680.91;5132134;27;20891;-65
2021/09/22 11:21:29;;;;;;;8.95;3.45;;;;;;;8.45;77.31;98690.59;5126550;27;20387;-64
2021/09/22 11:24:12;;;;;;;3.72;2.80;;;;;;;8.39;78.05;98687.06;5105571;27;20392;-65
2021/09/22 11:26:53;;;;;;;3.75;3.33;;;;;;;8.45;78.24;98685.31;5064672;28;20391;-65
2021/09/22 11:29:41;;;;;;;2.92;2.53;;;;;;;8.51;77.23;98678.28;5064427;28;20383;-64
2021/09/22 11:32:33;;;;;;;3.25;2.55;;;;;;;8.41;77.54;98685.00;5105687;27;20748;-64
2021/09/22 11:35:14;;;;;;;4.97;2.78;;;;;;;8.38;77.63;98679.34;5045973;28;20407;-66
2021/09/22 11:37:56;;;;;;;3.47;2.45;;;;;;;8.43;77.12;98683.94;5104916;27;20376;-64
2021/09/22 11:40:35;;;;;;;5.57;2.47;;;;;;;8.40;77.30;98685.22;5064066;28;20877;-65
2021/09/22 11:43:15;;;;;;;4.40;3.35;;;;;;;8.37;78.13;98688.31;5104384;27;20893;-67
2021/09/22 11:46:01;;;;;;;3.05;2.70;;;;;;;8.32;77.72;98683.75;5064415;28;20391;-63
2021/09/22 11:48:39;;;;;;;3.58;2.60;;;;;;;8.37;77.92;98683.03;5104119;27;20714;-66
2021/09/22 11:51:17;;;;;;;3.13;2.42;;;;;;;8.38;78.23;98684.63;5104736;27;20396;-65
2021/09/22 11:53:54;;;;;;;6.20;2.53;;;;;;;8.48;78.04;98691.97;5081224;28;20144;-64
2021/09/22 11:56:31;;;;;;;4.10;2.70;;;;;;;8.43;77.12;98681.31;5063056;28;20639;-65
2021/09/22 11:59:10;;;;;;;6.15;2.67;;;;;;;8.41;78.03;98690.28;5107439;27;20133;-66
2021/09/22 12:01:54;;;;;;;5.55;3.40;;;;;;;8.38;77.77;98685.47;5139037;27;21003;-64
2021/09/22 12:04:37;;;;;;;7.55;3.05;;;;;;;8.39;77.91;98686.28;5083692;28;20396;-61